Home > Products > Valid Products > TAF

000
FTUS43 KLMK 142148 AAA
TAFLEX
TAF AMD
KLEX 142148Z 1422/1518 13008KT 3SM -SN BKN020
      TEMPO 1422/1502 3/4SM -SN BKN012
     FM150200 16009KT 3SM -SN BKN006
     FM150900 17010KT 4SM BR VCSH BKN009
     FM151400 17010KT 6SM BR BKN012=



000
FTUS43 KLMK 142146 AAA
TAFBWG
TAF AMD
KBWG 142146Z 1422/1518 10009KT 6SM -FZRA BR OVC040
     FM142300 11010KT 5SM -PL BKN060
     FM150000 18010KT 4SM -SN BKN007
     FM150800 18007KT 4SM -SHRA BR BKN007
     FM151200 17006KT 6SM BR BKN007 OVC015=



000
FTUS43 KLMK 142057 AAB
TAFSDF
TAF AMD
KSDF 142057Z 1421/1524 10009KT 2SM -SN BKN025 OVC040
      TEMPO 1421/1423 1/4SM +SN BKN012 OVC025
     FM150100 16007KT 5SM -SN BKN009
      TEMPO 1504/1507 2SM -SN BKN005
     FM150900 16007KT 5SM BR VCSH BKN012
     FM151500 17005KT 4SM BR OVC015=



000
FTUS43 KLMK 141959 AAA
TAFSDF
TAF AMD
KSDF 141959Z 1420/1524 12007KT 2SM -SN BKN025 OVC040
      TEMPO 1420/1422 1SM -SN BKN015 OVC025
     FM150100 16007KT 5SM -SN BKN009
      TEMPO 1504/1507 2SM -SN BKN005
     FM150900 16007KT 5SM BR VCSH BKN012
     FM151500 17005KT 4SM BR OVC015=



000
FTUS43 KLMK 141723
TAFLEX
TAF
KLEX 141723Z 1418/1518 11007KT P6SM OVC040
     FM141830 12009KT 4SM -SN BKN022
     FM141915 13008KT 2SM -SN BKN007
      TEMPO 1422/1502 3/4SM -SN BKN004
     FM150200 16009KT 3SM -SN BKN006
     FM150900 17010KT 4SM BR VCSH BKN009
     FM151400 17010KT 6SM BR BKN012=



000
FTUS43 KLMK 141723
TAFSDF
TAF
KSDF 141723Z 1418/1524 12007KT 4SM -SN BKN025
      TEMPO 1418/1422 2SM -SN BKN009
     FM150100 16007KT 5SM -SN BKN009
      TEMPO 1504/1507 2SM -SN BKN005
     FM150900 16007KT 5SM BR VCSH BKN012
     FM151500 17005KT 4SM BR OVC015=



000
FTUS43 KLMK 141723
TAFBWG
TAF
KBWG 141723Z 1418/1518 14007KT 2SM -SN BKN015
      TEMPO 1418/1422 1/2SM TSSN BKN005 OVC025CB
     FM150000 18010KT 3SM -SN BKN007
     FM150800 18007KT 4SM -SHRA BR BKN007
     FM151200 17006KT 6SM BR BKN007 OVC015=



000
FTUS43 KLMK 141723
TAFLEX
TAF
KLEX 141723Z 1418/1518 11007KT P6SM OVC040
     FM141830 12009KT 4SM -SN BKN022
     FM141915 13008KT 2SM -SN BKN007
      TEMPO 1422/1502 3/4SM -SN BKN004
     FM150200 16009KT 3SM -SN BKN006
     FM150900 17010KT 4SM BR VCSH BKN009
     FM151400 17010KT 6SM BR BKN012=



000
FTUS43 KLMK 141723
TAFSDF
TAF
KSDF 141723Z 1418/1524 12007KT 4SM -SN BKN025
      TEMPO 1418/1422 2SM -SN BKN009
     FM150100 16007KT 5SM -SN BKN009
      TEMPO 1504/1507 2SM -SN BKN005
     FM150900 16007KT 5SM BR VCSH BKN012
     FM151500 17005KT 4SM BR OVC015=



000
FTUS43 KLMK 141723
TAFBWG
TAF
KBWG 141723Z 1418/1518 14007KT 2SM -SN BKN015
      TEMPO 1418/1422 1/2SM TSSN BKN005 OVC025CB
     FM150000 18010KT 3SM -SN BKN007
     FM150800 18007KT 4SM -SHRA BR BKN007
     FM151200 17006KT 6SM BR BKN007 OVC015=



000
FTUS43 KLMK 141508 AAA
TAFBWG
TAF AMD
KBWG 141508Z 1415/1512 09010KT P6SM -SN BKN040
     FM141630 14007KT 2SM -SN BKN015
      TEMPO 1418/1422 1/2SM SN BKN005
     FM150000 18010KT 3SM -SN BKN007
     FM150800 18007KT 4SM -SHRA BR BKN007=



000
FTUS43 KLMK 141508 AAA
TAFBWG
TAF AMD
KBWG 141508Z 1415/1512 09010KT P6SM -SN BKN040
     FM141630 14007KT 2SM -SN BKN015
      TEMPO 1418/1422 1/2SM SN BKN005
     FM150000 18010KT 3SM -SN BKN007
     FM150800 18007KT 4SM -SHRA BR BKN007=



000
FTUS43 KLMK 141502 AAA
TAFLEX
TAF AMD
KLEX 141502Z 1415/1512 11009KT 2SM -SN OVC021
     FM141600 11007KT P6SM OVC070
     FM141830 12009KT 4SM -SN BKN022
     FM142000 13008KT 2SM -SN BKN007
      TEMPO 1422/1502 3/4SM -SN BKN004
     FM150200 16009KT 3SM -SN BKN006
     FM150600 17010KT 4SM BR VCSH BKN009=



000
FTUS43 KLMK 141308 AAA
TAFSDF
TAF AMD
KSDF 141308Z 1413/1518 11008KT P6SM -SN OVC060
      TEMPO 1413/1415 2SM -SN BKN035
     FM141800 12007KT 5SM -SN BKN025
     FM142000 13008KT 2SM -SN BKN009
      TEMPO 1420/1424 1SM -SN BKN006
     FM150000 16007KT 4SM -SN BKN009
     FM150500 16007KT 5SM BR VCSH BKN012=



000
FTUS43 KLMK 141308 AAA
TAFSDF
TAF AMD
KSDF 141308Z 1413/1518 11008KT P6SM -SN OVC060
      TEMPO 1413/1415 2SM -SN BKN035
     FM141800 12007KT 5SM -SN BKN025
     FM142000 13008KT 2SM -SN BKN009
      TEMPO 1420/1424 1SM -SN BKN006
     FM150000 16007KT 4SM -SN BKN009
     FM150500 16007KT 5SM BR VCSH BKN012=



000
FTUS43 KLMK 141121
TAFLEX
TAF
KLEX 141121Z 1412/1512 08007KT P6SM BKN100
     FM142000 12009KT 4SM -SN BKN022
     FM142100 13008KT 2SM -SN BKN007
      TEMPO 1422/1502 3/4SM -SN BKN004
     FM150200 16009KT 3SM -SN BKN006
     FM150600 17010KT 4SM BR VCSH BKN009=



000
FTUS43 KLMK 141121
TAFBWG
TAF
KBWG 141121Z 1412/1512 11008KT P6SM -SN BKN040
     FM141800 14007KT 2SM -SN BKN009
      TEMPO 1419/1423 3/4SM -SN BKN005
     FM150200 18010KT 3SM -SN BKN007
     FM150800 18007KT 4SM -SHRA BR BKN007=



000
FTUS43 KLMK 141121
TAFSDF
TAF
KSDF 141121Z 1412/1518 08006KT P6SM -SN BKN080
     FM141800 12007KT 5SM -SN BKN025
     FM142000 13008KT 2SM -SN BKN009
      TEMPO 1420/1424 1SM -SN BKN006
     FM150000 16007KT 4SM -SN BKN009
     FM150500 16007KT 5SM BR VCSH BKN012=



000
FTUS43 KLMK 140520
TAFSDF
TAF
KSDF 140520Z 1406/1512 08006KT P6SM BKN100
     FM141400 12007KT 6SM -SN BKN040
     FM142000 13008KT 2SM -SN BKN009
      TEMPO 1420/1424 1SM -SN BKN006
     FM150000 16007KT 4SM -SN BKN010=



000
FTUS43 KLMK 140520
TAFSDF
TAF
KSDF 140520Z 1406/1512 08006KT P6SM BKN100
     FM141400 12007KT 6SM -SN BKN040
     FM142000 13008KT 2SM -SN BKN009
      TEMPO 1420/1424 1SM -SN BKN006
     FM150000 16007KT 4SM -SN BKN010=



000
FTUS43 KLMK 140520
TAFBWG
TAF
KBWG 140520Z 1406/1506 VRB04KT P6SM BKN090
     FM141100 11008KT 6SM -SN BKN040
     FM141800 14007KT 2SM -SN BKN009
      TEMPO 1419/1422 3/4SM -SN BKN004
     FM150200 18010KT 3SM -SN BKN008=



000
FTUS43 KLMK 140520
TAFLEX
TAF
KLEX 140520Z 1406/1506 08007KT P6SM BKN100
     FM141500 11009KT 6SM -SN BKN040
     FM142100 13008KT 2SM -SN BKN007
      TEMPO 1422/1502 1SM -SN BKN004
     FM150200 16009KT 3SM -SN BKN006=



000
FTUS43 KLMK 140520
TAFBWG
TAF
KBWG 140520Z 1406/1506 VRB04KT P6SM BKN090
     FM141100 11008KT 6SM -SN BKN040
     FM141800 14007KT 2SM -SN BKN009
      TEMPO 1419/1422 3/4SM -SN BKN004
     FM150200 18010KT 3SM -SN BKN008=



000
FTUS43 KLMK 140520
TAFLEX
TAF
KLEX 140520Z 1406/1506 08007KT P6SM BKN100
     FM141500 11009KT 6SM -SN BKN040
     FM142100 13008KT 2SM -SN BKN007
      TEMPO 1422/1502 1SM -SN BKN004
     FM150200 16009KT 3SM -SN BKN006=



000
FTUS43 KLMK 132325
TAFLEX
TAF
KLEX 132325Z 1400/1424 34007KT P6SM SCT150
     FM140400 06005KT P6SM BKN100
     FM141400 12008KT P6SM -SN BKN040
     FM142000 15008KT 2SM -SN BKN008=



000
FTUS43 KLMK 132325
TAFBWG
TAF
KBWG 132325Z 1400/1424 33005KT P6SM BKN100
     FM140200 VRB03KT P6SM BKN080
     FM141100 10006KT P6SM -SN BKN035
     FM141800 14007KT 3SM -SN BKN015=



000
FTUS43 KLMK 132325
TAFSDF
TAF
KSDF 132325Z 1400/1506 33006KT P6SM BKN150
     FM140300 06004KT P6SM BKN100
     FM141400 12007KT P6SM -SN BKN040
     FM141900 15008KT 2SM -SN BKN008=



000
FTUS43 KLMK 132325
TAFBWG
TAF
KBWG 132325Z 1400/1424 33005KT P6SM BKN100
     FM140200 VRB03KT P6SM BKN080
     FM141100 10006KT P6SM -SN BKN035
     FM141800 14007KT 3SM -SN BKN015=



000
FTUS43 KLMK 132325
TAFSDF
TAF
KSDF 132325Z 1400/1506 33006KT P6SM BKN150
     FM140300 06004KT P6SM BKN100
     FM141400 12007KT P6SM -SN BKN040
     FM141900 15008KT 2SM -SN BKN008=



000
FTUS43 KLMK 132325
TAFLEX
TAF
KLEX 132325Z 1400/1424 34007KT P6SM SCT150
     FM140400 06005KT P6SM BKN100
     FM141400 12008KT P6SM -SN BKN040
     FM142000 15008KT 2SM -SN BKN008=



000
FTUS43 KLMK 131720
TAFSDF
TAF
KSDF 131720Z 1318/1424 36007KT P6SM SCT040
     FM140300 04004KT P6SM BKN120
     FM141400 12007KT P6SM -SN OVC040
     FM142000 15008KT 2SM -SN BR OVC008=



000
FTUS43 KLMK 131720
TAFBWG
TAF
KBWG 131720Z 1318/1418 35005KT P6SM SKC
     FM140200 VRB03KT P6SM OVC150
     FM141300 12007KT P6SM -SN BKN040=



000
FTUS43 KLMK 131720
TAFLEX
TAF
KLEX 131720Z 1318/1418 34008KT P6SM SCT030
     FM140400 06005KT P6SM BKN120
     FM141400 12008KT P6SM -SN BKN040=



000
FTUS43 KLMK 131123
TAFSDF
TAF
KSDF 131123Z 1312/1418 33009KT P6SM FEW250
     FM132100 36007KT P6SM SCT250
     FM140300 02004KT P6SM BKN150
     FM141500 12007KT P6SM -SN OVC050=



000
FTUS43 KLMK 131123
TAFLEX
TAF
KLEX 131123Z 1312/1412 32008KT P6SM BKN035
     FM131500 34008KT P6SM SCT050 SCT250
     FM140300 03003KT P6SM BKN150=



000
FTUS43 KLMK 131123
TAFBWG
TAF
KBWG 131123Z 1312/1412 33007KT P6SM FEW250
     FM132100 35005KT P6SM SCT250
     FM140300 VRB03KT P6SM OVC150=



000
FTUS43 KLMK 131123
TAFLEX
TAF
KLEX 131123Z 1312/1412 32008KT P6SM BKN035
     FM131500 34008KT P6SM SCT050 SCT250
     FM140300 03003KT P6SM BKN150=



000
FTUS43 KLMK 131123
TAFSDF
TAF
KSDF 131123Z 1312/1418 33009KT P6SM FEW250
     FM132100 36007KT P6SM SCT250
     FM140300 02004KT P6SM BKN150
     FM141500 12007KT P6SM -SN OVC050=



000
FTUS43 KLMK 131123
TAFBWG
TAF
KBWG 131123Z 1312/1412 33007KT P6SM FEW250
     FM132100 35005KT P6SM SCT250
     FM140300 VRB03KT P6SM OVC150=



000
FTUS43 KLMK 130520
TAFLEX
TAF
KLEX 130520Z 1306/1406 30017G20KT P6SM -SN BKN035 OVC050
     FM130900 31008KT P6SM BKN050
     FM131300 31007KT P6SM SCT035 SCT250
     FM131600 32008KT P6SM SCT250=



000
FTUS43 KLMK 130520
TAFSDF
TAF
KSDF 130520Z 1306/1412 31009G19KT P6SM -SN BKN035 OVC050
     FM130700 32012G15KT P6SM BKN050
     FM131000 32009KT P6SM SCT050 SCT250
     FM131400 32007KT P6SM FEW250=



000
FTUS43 KLMK 130520
TAFBWG
TAF
KBWG 130520Z 1306/1406 32010G15KT P6SM SCT040 BKN060
     FM130900 35005KT P6SM SCT250
     FM131400 35005KT P6SM FEW250=



000
FTUS43 KLMK 122322
TAFBWG
TAF
KBWG 122322Z 1300/1324 31008G15KT P6SM OVC025
     FM130300 34008KT P6SM SCT022
     FM131200 01005KT P6SM FEW250=



000
FTUS43 KLMK 122322
TAFLEX
TAF
KLEX 122322Z 1300/1324 29010G17KT P6SM -SHSN BKN025
      TEMPO 1301/1303 3SM -SN BR
     FM130400 32010KT P6SM BKN035
     FM131400 31007KT P6SM SCT035=



000
FTUS43 KLMK 122322
TAFSDF
TAF
KSDF 122322Z 1300/1406 30013G18KT P6SM -SHSN BKN025
      TEMPO 1300/1302 3SM -SN BR
     FM130300 31013KT P6SM BKN035
     FM130900 32007KT P6SM FEW035 SCT250=



000
FTUS43 KLMK 121720
TAFBWG
TAF
KBWG 121720Z 1218/1318 31008G15KT P6SM OVC025
     FM130300 34008KT P6SM SCT022=



000
FTUS43 KLMK 121720
TAFLEX
TAF
KLEX 121720Z 1218/1318 27007G17KT P6SM BKN027
     FM122100 29010G17KT P6SM VCSH BKN025
     FM130300 32008KT P6SM BKN035=



000
FTUS43 KLMK 121720
TAFSDF
TAF
KSDF 121720Z 1218/1324 29010G20KT P6SM BKN025
     FM122100 30013G18KT P6SM VCSH BKN025
     FM130300 31013KT P6SM BKN028
     FM130800 32007KT P6SM SCT030=



000
FTUS43 KLMK 121720
TAFBWG
TAF
KBWG 121720Z 1218/1318 31008G15KT P6SM OVC025
     FM130300 34008KT P6SM SCT022=



000
FTUS43 KLMK 121720
TAFSDF
TAF
KSDF 121720Z 1218/1324 29010G20KT P6SM BKN025
     FM122100 30013G18KT P6SM VCSH BKN025
     FM130300 31013KT P6SM BKN028
     FM130800 32007KT P6SM SCT030=



000
FTUS43 KLMK 121720
TAFLEX
TAF
KLEX 121720Z 1218/1318 27007G17KT P6SM BKN027
     FM122100 29010G17KT P6SM VCSH BKN025
     FM130300 32008KT P6SM BKN035=



000
FTUS43 KLMK 121631 AAC
TAFBWG
TAF AMD
KBWG 121631Z 1217/1312 32005KT P6SM BKN025
      TEMPO 1217/1218 BKN009
     FM122200 30009G17KT P6SM BKN035
     FM130200 32008KT P6SM BKN035
     FM130600 33005KT P6SM SCT150=



000
FTUS43 KLMK 121320 AAA
TAFSDF
TAF AMD
KSDF 121320Z 1213/1318 VRB03KT P6SM -SN BKN050
      TEMPO 1214/1216 5SM -SN BR BKN035
     FM121600 28010G15KT P6SM BKN025
     FM122100 29012G19KT 6SM BR VCSH BKN025
     FM130100 30012G18KT P6SM BKN035
     FM130500 31012KT P6SM SCT150=



000
FTUS43 KLMK 121312 AAB
TAFBWG
TAF AMD
KBWG 121312Z 1213/1312 VRB03KT 3SM -SN BR BKN022
      TEMPO 1213/1214 1SM -SN BKN018
     FM121500 32005KT P6SM BKN035
     FM122200 30009G17KT P6SM BKN035
     FM130200 32008KT P6SM BKN035
     FM130600 33005KT P6SM SCT150=



000
FTUS43 KLMK 121157 AAA
TAFBWG
TAF AMD
KBWG 121157Z 1212/1312 VRB03KT 3SM -SN BR BKN022
     FM121500 32005KT P6SM BKN035
     FM122200 30009G17KT P6SM BKN035
     FM130200 32008KT P6SM BKN035
     FM130600 33005KT P6SM SCT150=



000
FTUS43 KLMK 121157 AAA
TAFBWG
TAF AMD
KBWG 121157Z 1212/1312 VRB03KT 3SM -SN BR BKN022
     FM121500 32005KT P6SM BKN035
     FM122200 30009G17KT P6SM BKN035
     FM130200 32008KT P6SM BKN035
     FM130600 33005KT P6SM SCT150=



000
FTUS43 KLMK 121120
TAFSDF
TAF
KSDF 121120Z 1212/1318 VRB03KT 6SM -SN BR BKN040
     FM121600 28010G15KT P6SM BKN025
     FM122100 29012G19KT 6SM BR VCSH BKN025
     FM130100 30012G18KT P6SM BKN035
     FM130500 31012KT P6SM SCT150=



000
FTUS43 KLMK 121120
TAFBWG
TAF
KBWG 121120Z 1212/1312 VRB03KT 3SM -SN BR BKN022
      TEMPO 1212/1213 1SM -SN BR BKN009
     FM121500 32005KT P6SM BKN035
     FM122200 30009G17KT P6SM BKN035
     FM130200 32008KT P6SM BKN035
     FM130600 33005KT P6SM SCT150=



000
FTUS43 KLMK 121120
TAFLEX
TAF
KLEX 121120Z 1212/1312 VRB04KT P6SM BKN100
     FM121300 17004KT 6SM -SN BR BKN035
     FM121700 26007KT P6SM BKN025
     FM122100 28010G17KT 6SM BR VCSH BKN035
     FM130300 29010KT P6SM BKN035
     FM131000 31009KT P6SM SCT150=



000
FTUS43 KLMK 121120
TAFSDF
TAF
KSDF 121120Z 1212/1318 VRB03KT 6SM -SN BR BKN040
     FM121600 28010G15KT P6SM BKN025
     FM122100 29012G19KT 6SM BR VCSH BKN025
     FM130100 30012G18KT P6SM BKN035
     FM130500 31012KT P6SM SCT150=



000
FTUS43 KLMK 121120
TAFBWG
TAF
KBWG 121120Z 1212/1312 VRB03KT 3SM -SN BR BKN022
      TEMPO 1212/1213 1SM -SN BR BKN009
     FM121500 32005KT P6SM BKN035
     FM122200 30009G17KT P6SM BKN035
     FM130200 32008KT P6SM BKN035
     FM130600 33005KT P6SM SCT150=



000
FTUS43 KLMK 121120
TAFLEX
TAF
KLEX 121120Z 1212/1312 VRB04KT P6SM BKN100
     FM121300 17004KT 6SM -SN BR BKN035
     FM121700 26007KT P6SM BKN025
     FM122100 28010G17KT 6SM BR VCSH BKN035
     FM130300 29010KT P6SM BKN035
     FM131000 31009KT P6SM SCT150=



000
FTUS43 KLMK 120806 AAA
TAFBWG
TAF AMD
KBWG 120806Z 1208/1306 04003KT P6SM OVC100
     FM120900 VRB03KT 4SM -SN BR BKN022
      TEMPO 1210/1213 1SM -SN BR BKN009
     FM121500 32005KT P6SM BKN025
     FM122200 30009G17KT P6SM BKN035
     FM130100 32008KT P6SM BKN035=



000
FTUS43 KLMK 120521
TAFSDF
TAF
KSDF 120521Z 1206/1312 VRB04KT P6SM SCT040 BKN100
     FM121200 VRB03KT 6SM -SN BR BKN040
     FM121600 28010G15KT P6SM BKN025
     FM122100 29012G19KT 6SM BR VCSH BKN025
     FM130100 30012G18KT P6SM BKN035=



000
FTUS43 KLMK 120521
TAFBWG
TAF
KBWG 120521Z 1206/1306 04003KT P6SM OVC100
     FM121000 VRB03KT 4SM -SN BR BKN025
      TEMPO 1210/1213 2SM -SN BR BKN015
     FM121500 32005KT P6SM BKN025
     FM122200 30009G17KT P6SM BKN035
     FM130100 32008KT P6SM BKN035=



000
FTUS43 KLMK 120521
TAFLEX
TAF
KLEX 120521Z 1206/1306 VRB04KT P6SM BKN100
     FM121300 17004KT 6SM -SN BR BKN035
     FM121700 26007KT P6SM BKN025
     FM122100 28010G17KT 6SM BR VCSH BKN025
     FM130300 29010KT P6SM BKN025=



000
FTUS43 KLMK 112323
TAFSDF
TAF
KSDF 112323Z 1200/1306 VRB04KT P6SM SCT040 BKN100
     FM121100 VRB03KT P6SM BKN040 PROB30 1212/1216 3SM -SN BR BKN025
     FM121600 28010G15KT P6SM BKN025
     FM130100 30012G18KT P6SM BKN035=



000
FTUS43 KLMK 112323
TAFLEX
TAF
KLEX 112323Z 1200/1224 VRB03KT P6SM BKN100
     FM121000 VRB03KT P6SM BKN050 PROB30 1212/1217 3SM -SN BR BKN025
     FM121700 26007KT P6SM BKN025=



000
FTUS43 KLMK 112323
TAFBWG
TAF
KBWG 112323Z 1200/1224 04003KT P6SM OVC100
     FM121000 VRB03KT 4SM -SN BR BKN025
      TEMPO 1211/1214 2SM -SN BR BKN015
     FM121500 32005KT P6SM BKN025
     FM122200 30009G17KT P6SM BKN035=



000
FTUS43 KLMK 112323
TAFSDF
TAF
KSDF 112323Z 1200/1306 VRB04KT P6SM SCT040 BKN100
     FM121100 VRB03KT P6SM BKN040 PROB30 1212/1216 3SM -SN BR BKN025
     FM121600 28010G15KT P6SM BKN025
     FM130100 30012G18KT P6SM BKN035=



000
FTUS43 KLMK 112323
TAFBWG
TAF
KBWG 112323Z 1200/1224 04003KT P6SM OVC100
     FM121000 VRB03KT 4SM -SN BR BKN025
      TEMPO 1211/1214 2SM -SN BR BKN015
     FM121500 32005KT P6SM BKN025
     FM122200 30009G17KT P6SM BKN035=



000
FTUS43 KLMK 112323
TAFLEX
TAF
KLEX 112323Z 1200/1224 VRB03KT P6SM BKN100
     FM121000 VRB03KT P6SM BKN050 PROB30 1212/1217 3SM -SN BR BKN025
     FM121700 26007KT P6SM BKN025=



    US Dept of Commerce
    National Oceanic and Atmospheric Administration
    National Weather Service
    1325 East West Highway
    Silver Spring, MD 20910
    Page Author: NWS Internet Services Team
Disclaimer
Information Quality
Credits
Glossary
Privacy Policy
Freedom of Information Act (FOIA)
About Us
Career Opportunities